EPPOEPGD

Guest
Details From EPPO - Lawica
To EPGD - Lech Walesa
Flight Number -
Tags Generated
Created
Modified
Stats Distance 131 nm / 243 km
Max Altitude 0 ft / 0 m
Waypoints 2
Social Downloads 0
Likes 0
Share VATSIM

Download

Looking for another format? Having issues loading an existing format? Contact us
Advertisement - Login to hide

Notes

Generated

Route

EPPO EPGD

ID Type Via Altitude Latitude Longitude Leg Dist Tot Dist Heading (true) Name
O EPPO APT - 0 ft / 0 m 52.42494˚ 16.80609˚ - 0 nm - -
O EPGD APT - 0 ft / 0 m 54.38107˚ 18.45205˚ 131 nm 131 nm 26° / 27° -

Altitude Profile

Advertisement - Login to hide

EPPO

Details ICAO EPPO (POZ)
Name LAWICA
Region Poland
Timezone Europe/Warsaw (UTC+1.0)
Stats Elevation 308 ft / 94 m (AMSL)
Location 52.421566° 16.823549°
Runways 1
Magnetic Variation 4.736° E

METAR

EPPO 160000Z 27009KT 5000 BR OVC004 01/01 Q1000 R10/290195

Decode

TAF

TAF EPPO 152330Z 1600/1624 23005KT 5000 BR BKN006 TEMPO 1600/1609 2000 BR BKN002 TEMPO 1609/1620 SCT007 BKN018 TEMPO 1620/1624 2000 -SN -SNRA BR BKN004

Decode

Departure Runways

ID Width Length Bearing (true) Bearing (mag) Surface Threshold Offset Overrun Length
11 164 ft / 50 m 8,153 ft / 2,485 m 107.57° 102.83° Asphalt 0 ft / 0 m 0 ft / 0 m
29 164 ft / 50 m 8,153 ft / 2,485 m 287.59° 282.85° Asphalt 0 ft / 0 m 0 ft / 0 m

EPGD

Details ICAO EPGD (GDN)
Name LECH WALESA
Region Poland
Timezone Europe/Warsaw (UTC+1.0)
Stats Elevation 489 ft / 149 m (AMSL)
Location 54.376167° 18.471884°
Runways 1
Magnetic Variation 5.451° E

METAR

EPGD 160000Z 23009KT 9999 BKN005 M01/M01 Q0998

Decode

TAF

TAF TAF EPGD 152330Z 1600/1624 25011KT 8000 BKN005 PROB40 1600/1606 0800 FZFG OVC002 PROB40 TEMPO 1610/1618 3000 -SHSN -SHRASN BKN005 BKN010CB

Decode

Destination Runways

ID Width Length Bearing (true) Bearing (mag) Surface Threshold Offset Overrun Length
11 148 ft / 45 m 9,158 ft / 2,791 m 112.96° 107.51° Asphalt 0 ft / 0 m 0 ft / 0 m
29 148 ft / 45 m 9,158 ft / 2,791 m 293.00° 287.55° Asphalt 0 ft / 0 m 0 ft / 0 m

Approach Navaids

Runway Type Ident Frequency Range Bearing (true) Bearing (mag) Slope Elevation
29 Localiser IGDA 110.30 MHz 18 nm / 33 km 292.96° 287.51° - 489 ft / 149 m (AMSL)
29 Glidescope IGDA 110.30 MHz 10 nm / 19 km 292.98° 287.53° 2.90° 489 ft / 149 m (AMSL)
29 DME IGDA 110.30 MHz 18 nm / 33 km - - - 492 ft / 150 m (AMSL)

Popular Alternatives